createdAt,value
2019-01-16T00:00:02.599Z,3.80
2019-01-16T00:02:50.352Z,4.30
2019-01-16T00:05:37.608Z,3.33
2019-01-16T00:08:25.673Z,3.90
2019-01-16T00:11:28.906Z,4.00
2019-01-16T00:14:08.217Z,4.07
2019-01-16T00:16:54.750Z,4.17
2019-01-16T00:19:35.269Z,4.67
2019-01-16T00:22:15.303Z,3.73
2019-01-16T00:24:59.096Z,3.90
2019-01-16T00:28:05.255Z,4.17
2019-01-16T00:30:51.681Z,4.20
2019-01-16T00:33:41.323Z,4.50
2019-01-16T00:36:26.846Z,4.40
2019-01-16T00:39:14.363Z,3.70
2019-01-16T00:42:07.623Z,4.13
2019-01-16T00:45:01.251Z,4.73
2019-01-16T00:47:52.147Z,4.23
2019-01-16T00:50:41.969Z,5.13
2019-01-16T00:53:26.349Z,3.77
2019-01-16T00:56:12.625Z,4.40
2019-01-16T00:59:12.009Z,3.77
2019-01-16T01:02:00.898Z,4.20
2019-01-16T01:04:56.919Z,4.50
2019-01-16T01:07:53.222Z,4.50
2019-01-16T01:10:35.943Z,4.33
2019-01-16T01:13:12.354Z,5.07
2019-01-16T01:16:04.811Z,3.90
2019-01-16T01:18:51.225Z,4.00
2019-01-16T01:21:39.031Z,4.10
2019-01-16T01:24:26.333Z,4.17
2019-01-16T01:27:16.723Z,3.57
2019-01-16T01:29:52.640Z,3.77
2019-01-16T01:32:48.567Z,4.30
2019-01-16T01:35:35.335Z,4.83
2019-01-16T01:38:35.026Z,5.10
2019-01-16T01:41:25.419Z,3.97
2019-01-16T01:44:15.734Z,4.40
2019-01-16T01:46:50.991Z,4.03
2019-01-16T01:49:53.759Z,4.20
2019-01-16T01:52:41.698Z,5.13
2019-01-16T01:55:27.353Z,4.80
2019-01-16T01:58:13.273Z,4.90
2019-01-16T02:01:09.808Z,4.70
2019-01-16T02:03:55.306Z,4.60
2019-01-16T02:06:41.426Z,4.27
2019-01-16T02:09:20.932Z,4.97
2019-01-16T02:12:18.089Z,5.00
2019-01-16T02:14:59.881Z,4.77
2019-01-16T02:17:53.329Z,4.67
2019-01-16T02:20:39.847Z,4.63
2019-01-16T02:23:25.620Z,5.27
2019-01-16T02:26:18.786Z,5.20
2019-01-16T02:29:04.565Z,4.83
2019-01-16T02:31:49.706Z,5.53
2019-01-16T02:34:43.331Z,5.03
2019-01-16T02:37:21.872Z,5.97
2019-01-16T02:40:15.109Z,6.13
2019-01-16T02:42:51.596Z,5.30
2019-01-16T02:45:37.572Z,5.60
2019-01-16T02:48:43.061Z,6.80
2019-01-16T02:51:21.897Z,6.00
2019-01-16T02:54:04.505Z,5.10
2019-01-16T02:56:50.407Z,6.30
2019-01-16T02:59:36.334Z,6.77
2019-01-16T03:02:14.734Z,6.90
2019-01-16T03:05:11.288Z,6.00
2019-01-16T03:07:49.984Z,6.97
2019-01-16T03:10:43.677Z,6.33
2019-01-16T03:13:30.042Z,5.50
2019-01-16T03:16:16.336Z,6.13
2019-01-16T03:19:15.588Z,5.70
2019-01-16T03:22:02.735Z,5.30
2019-01-16T03:24:49.419Z,5.87
2019-01-16T03:27:55.279Z,6.57
2019-01-16T03:30:41.696Z,5.93
2019-01-16T03:33:27.974Z,6.93
2019-01-16T03:36:37.637Z,6.27
2019-01-16T03:39:37.544Z,6.23
2019-01-16T03:42:24.344Z,6.30
2019-01-16T03:45:18.007Z,5.97
2019-01-16T03:48:03.104Z,5.43
2019-01-16T03:50:50.952Z,6.93
2019-01-16T03:53:27.804Z,6.90
2019-01-16T03:56:21.480Z,6.00
2019-01-16T03:59:24.259Z,5.93
2019-01-16T04:02:10.681Z,7.37
2019-01-16T04:05:01.185Z,5.50
2019-01-16T04:07:48.488Z,5.90
2019-01-16T04:10:45.050Z,4.97
2019-01-16T04:13:29.945Z,5.83
2019-01-16T04:16:23.615Z,5.60
2019-01-16T04:19:23.317Z,6.03
2019-01-16T04:22:09.807Z,7.47
2019-01-16T04:25:01.656Z,6.47
2019-01-16T04:27:48.150Z,5.23
2019-01-16T04:30:33.834Z,5.23
2019-01-16T04:33:39.573Z,5.70
2019-01-16T04:36:30.098Z,5.90
2019-01-16T04:39:07.009Z,5.33
2019-01-16T04:41:56.418Z,6.43
2019-01-16T04:44:38.140Z,5.63
2019-01-16T04:47:36.674Z,6.53
2019-01-16T04:50:24.124Z,5.10
2019-01-16T04:53:14.538Z,5.53
2019-01-16T04:55:54.864Z,5.00
2019-01-16T04:58:51.939Z,5.30
2019-01-16T05:01:38.443Z,5.83
2019-01-16T05:04:24.531Z,6.87
2019-01-16T05:07:03.646Z,5.63
2019-01-16T05:09:55.088Z,4.90
2019-01-16T05:12:41.799Z,5.13
2019-01-16T05:15:15.378Z,6.00
2019-01-16T05:18:14.783Z,5.80
2019-01-16T05:20:58.338Z,5.27
2019-01-16T05:23:49.635Z,5.40
2019-01-16T05:26:44.853Z,6.00
2019-01-16T05:29:34.299Z,5.93
2019-01-16T05:32:22.020Z,5.73
2019-01-16T05:35:12.578Z,5.43
2019-01-16T05:37:59.011Z,7.07
2019-01-16T05:40:53.952Z,5.47
2019-01-16T05:43:40.999Z,5.37
2019-01-16T05:46:18.047Z,5.73
2019-01-16T05:49:23.751Z,5.87
2019-01-16T05:52:20.984Z,6.23
2019-01-16T05:55:13.519Z,5.90
2019-01-16T05:57:51.866Z,5.40
2019-01-16T06:00:45.090Z,7.80
2019-01-16T06:03:45.014Z,7.30
2019-01-16T06:06:31.722Z,6.30
2019-01-16T06:09:17.933Z,5.50
2019-01-16T06:12:03.347Z,6.70
2019-01-16T06:14:44.280Z,6.20
2019-01-16T06:17:41.043Z,5.80
2019-01-16T06:20:27.958Z,6.90
2019-01-16T06:23:19.188Z,6.07
2019-01-16T06:26:06.754Z,5.60
2019-01-16T06:28:52.973Z,7.23
2019-01-16T06:31:39.178Z,6.60
2019-01-16T06:34:38.693Z,6.30
2019-01-16T06:37:41.155Z,6.40
2019-01-16T06:40:27.011Z,6.50
2019-01-16T06:43:17.862Z,7.77
2019-01-16T06:46:17.133Z,6.07
2019-01-16T06:49:09.078Z,5.80
2019-01-16T06:51:55.082Z,5.70
2019-01-16T06:54:45.489Z,6.23
2019-01-16T06:57:51.043Z,6.33
2019-01-16T07:00:34.150Z,7.60
2019-01-16T07:03:21.682Z,6.40
2019-01-16T07:06:08.512Z,7.20
2019-01-16T07:08:54.503Z,7.57
2019-01-16T07:11:28.777Z,6.63
2019-01-16T07:14:21.273Z,7.83
2019-01-16T07:17:18.103Z,7.40
2019-01-16T07:20:14.850Z,6.43
2019-01-16T07:23:01.455Z,6.90
2019-01-16T07:25:51.383Z,7.10
2019-01-16T07:28:41.308Z,7.17
2019-01-16T07:31:28.570Z,7.07
2019-01-16T07:34:10.039Z,6.13
2019-01-16T07:37:03.929Z,5.97
2019-01-16T07:39:48.198Z,5.83
2019-01-16T07:42:35.103Z,5.43
2019-01-16T07:45:41.539Z,6.20
2019-01-16T07:48:22.616Z,5.73
2019-01-16T07:51:28.619Z,5.83
2019-01-16T07:54:11.216Z,4.70
2019-01-16T07:57:00.056Z,6.30
2019-01-16T08:00:05.919Z,8.27
2019-01-16T08:02:52.140Z,5.30
2019-01-16T08:05:41.395Z,5.53
2019-01-16T08:08:17.639Z,5.30
2019-01-16T08:11:13.933Z,5.40
2019-01-16T08:13:53.928Z,4.33
2019-01-16T08:16:44.010Z,4.87
2019-01-16T08:19:40.505Z,5.03
2019-01-16T08:22:34.144Z,4.97
2019-01-16T08:25:27.505Z,4.80
2019-01-16T08:28:08.043Z,3.60
2019-01-16T08:30:58.468Z,4.00
2019-01-16T08:34:04.252Z,5.20
2019-01-16T08:36:40.713Z,6.00
2019-01-16T08:39:32.820Z,4.60
2019-01-16T08:42:28.134Z,4.00
2019-01-16T08:45:34.019Z,5.10
2019-01-16T08:48:23.987Z,4.00
2019-01-16T08:51:09.865Z,4.00
2019-01-16T08:53:56.535Z,3.97
2019-01-16T08:56:37.000Z,8.47
2019-01-16T08:59:32.988Z,3.90
2019-01-16T09:02:20.532Z,3.73
2019-01-16T09:05:12.132Z,3.70
2019-01-16T09:08:02.709Z,4.43
2019-01-16T09:10:59.691Z,4.60
2019-01-16T09:13:47.081Z,5.07
2019-01-16T09:16:37.908Z,4.83
2019-01-16T09:19:18.533Z,4.80
2019-01-16T09:22:04.793Z,4.90
2019-01-16T09:25:07.227Z,5.20
2019-01-16T09:27:49.327Z,4.77
2019-01-16T09:30:35.111Z,5.67
2019-01-16T09:33:21.442Z,4.77
2019-01-16T09:36:07.116Z,4.60
2019-01-16T09:39:06.433Z,5.30
2019-01-16T09:42:02.104Z,5.40
2019-01-16T09:45:08.209Z,5.00
2019-01-16T09:47:54.207Z,5.50
2019-01-16T09:50:47.647Z,5.80
2019-01-16T09:53:39.487Z,4.93
2019-01-16T09:56:26.820Z,4.70
2019-01-16T09:59:13.503Z,4.90
2019-01-16T10:01:59.875Z,4.60
2019-01-16T10:04:50.060Z,3.80
2019-01-16T10:07:30.779Z,6.07
2019-01-16T10:10:08.270Z,3.97
2019-01-16T10:12:49.011Z,4.67
2019-01-16T10:15:49.179Z,4.70
2019-01-16T10:18:45.319Z,4.57
2019-01-16T10:21:30.462Z,4.90
2019-01-16T10:24:13.514Z,3.90
2019-01-16T10:27:09.540Z,4.00
2019-01-16T10:29:55.260Z,3.60
2019-01-16T10:32:54.472Z,4.80
2019-01-16T10:35:39.989Z,3.97
2019-01-16T10:38:27.207Z,4.23
2019-01-16T10:41:32.882Z,4.00
2019-01-16T10:44:26.959Z,4.43
2019-01-16T10:47:26.870Z,4.60
2019-01-16T10:50:32.605Z,4.97
2019-01-16T10:53:26.216Z,4.07
2019-01-16T10:56:23.744Z,4.30
2019-01-16T10:58:58.846Z,4.67
2019-01-16T11:01:55.042Z,4.57
2019-01-16T11:04:39.889Z,4.33
2019-01-16T11:07:35.759Z,4.50
2019-01-16T11:10:22.939Z,4.23
2019-01-16T11:13:25.412Z,4.40
2019-01-16T11:16:18.911Z,4.77
2019-01-16T11:19:24.541Z,5.30
2019-01-16T11:22:12.083Z,5.40
2019-01-16T11:24:51.220Z,5.00
2019-01-16T11:27:47.869Z,3.80
2019-01-16T11:30:50.272Z,4.63
2019-01-16T11:33:37.743Z,3.83
2019-01-16T11:36:43.149Z,4.60
2019-01-16T11:39:30.459Z,4.07
2019-01-16T11:42:15.538Z,4.10
2019-01-16T11:44:59.940Z,4.73
2019-01-16T11:47:42.321Z,4.27
2019-01-16T11:50:40.108Z,4.10
2019-01-16T11:53:29.905Z,5.00
2019-01-16T11:56:21.319Z,7.93
2019-01-16T11:59:17.499Z,12.13
2019-01-16T12:01:55.427Z,7.87
2019-01-16T12:04:48.842Z,5.47
2019-01-16T12:07:35.876Z,6.50
2019-01-16T12:10:39.660Z,11.47
2019-01-16T12:13:16.487Z,5.67
2019-01-16T12:15:59.089Z,6.27
2019-01-16T12:18:53.350Z,6.57
2019-01-16T12:21:39.935Z,13.70
2019-01-16T12:24:26.087Z,7.03
2019-01-16T12:27:11.977Z,6.03
2019-01-16T12:30:05.024Z,6.30
2019-01-16T12:32:49.166Z,5.00
2019-01-16T12:35:34.440Z,8.13
2019-01-16T12:41:28.864Z,8.77
2019-01-16T12:44:13.866Z,9.03
2019-01-16T12:46:50.187Z,12.27
2019-01-16T12:49:41.977Z,9.20
2019-01-16T12:52:20.827Z,8.73
2019-01-16T12:55:03.248Z,10.63
2019-01-16T12:57:53.593Z,9.50
2019-01-16T13:00:47.107Z,7.63
2019-01-16T13:03:27.938Z,9.00
2019-01-16T13:06:33.986Z,9.97
2019-01-16T13:09:36.622Z,10.47
2019-01-16T13:12:33.543Z,4.93
2019-01-16T13:15:12.892Z,5.80
2019-01-16T13:17:59.943Z,5.80
2019-01-16T13:20:46.104Z,6.20
2019-01-16T13:23:41.456Z,7.10
2019-01-16T13:26:28.775Z,6.40
2019-01-16T13:29:17.209Z,7.20
2019-01-16T13:32:01.418Z,7.67
2019-01-16T13:34:57.591Z,9.87
2019-01-16T13:37:36.561Z,8.20
2019-01-16T13:40:29.926Z,9.00
2019-01-16T13:43:20.926Z,9.07
2019-01-16T13:46:08.489Z,9.50
2019-01-16T13:48:58.632Z,8.47
2019-01-16T13:52:03.547Z,5.87
2019-01-16T13:54:45.371Z,5.50
2019-01-16T13:57:25.729Z,4.80
2019-01-16T14:00:04.962Z,5.80
2019-01-16T14:02:51.471Z,6.07
2019-01-16T14:05:33.867Z,6.60
2019-01-16T14:08:19.089Z,6.00
2019-01-16T14:10:55.877Z,5.50
2019-01-16T14:13:45.755Z,6.70
2019-01-16T14:16:36.208Z,5.50
2019-01-16T14:19:21.868Z,8.17
2019-01-16T14:22:11.439Z,7.07
2019-01-16T14:24:58.223Z,7.40
2019-01-16T14:28:04.147Z,4.87
2019-01-16T14:30:50.074Z,4.97
2019-01-16T14:33:32.318Z,6.03
2019-01-16T14:36:22.177Z,5.53
2019-01-16T14:39:11.951Z,5.27
2019-01-16T14:41:58.260Z,5.93
2019-01-16T14:44:51.646Z,6.30
2019-01-16T14:47:37.495Z,12.33
2019-01-16T14:50:24.097Z,8.10
2019-01-16T14:53:06.877Z,7.37
2019-01-16T14:55:57.419Z,6.13
2019-01-16T14:58:49.198Z,6.93
2019-01-16T15:01:42.799Z,6.03
2019-01-16T15:04:29.140Z,5.20
2019-01-16T15:07:15.577Z,5.47
2019-01-16T15:09:53.471Z,5.07
2019-01-16T15:12:40.544Z,7.17
2019-01-16T15:15:26.143Z,7.17
2019-01-16T15:18:19.641Z,5.53
2019-01-16T15:21:06.985Z,4.57
2019-01-16T15:24:00.032Z,5.90
2019-01-16T15:26:53.473Z,5.60
2019-01-16T15:29:43.283Z,6.63
2019-01-16T15:32:21.668Z,6.33
2019-01-16T15:35:13.265Z,8.67
2019-01-16T15:38:12.562Z,7.93
2019-01-16T15:41:05.656Z,7.33
2019-01-16T15:43:51.944Z,10.80
2019-01-16T15:46:32.906Z,7.30
2019-01-16T15:49:18.442Z,6.90
2019-01-16T15:51:59.017Z,6.83
2019-01-16T15:54:44.848Z,8.57
2019-01-16T15:57:30.449Z,7.57
2019-01-16T16:00:23.576Z,8.60
2019-01-16T16:03:16.809Z,11.57
2019-01-16T16:06:07.377Z,7.97
2019-01-16T16:09:03.665Z,9.57
2019-01-16T16:11:57.084Z,9.00
2019-01-16T16:14:44.971Z,8.50
2019-01-16T16:17:24.122Z,7.60
2019-01-16T16:20:10.283Z,9.73
2019-01-16T16:22:48.326Z,7.83
2019-01-16T16:25:50.748Z,12.23
2019-01-16T16:28:43.955Z,8.83
2019-01-16T16:31:25.167Z,9.33
2019-01-16T16:34:20.291Z,10.00
2019-01-16T16:37:00.950Z,10.27
2019-01-16T16:39:47.309Z,9.80
2019-01-16T16:42:31.566Z,11.37
2019-01-16T16:45:21.379Z,13.47
2019-01-16T16:48:07.760Z,11.30
2019-01-16T16:50:53.932Z,9.17
2019-01-16T16:53:34.822Z,11.00
2019-01-16T16:56:33.974Z,9.17
2019-01-16T16:59:13.119Z,11.20
2019-01-16T17:02:09.416Z,10.90
2019-01-16T17:05:02.882Z,9.90
2019-01-16T17:07:44.890Z,16.27
2019-01-16T17:10:32.171Z,23.43
2019-01-16T17:13:25.229Z,21.90
2019-01-16T17:16:12.406Z,18.70
2019-01-16T17:18:53.315Z,13.70
2019-01-16T17:21:47.512Z,13.73
2019-01-16T17:24:33.660Z,23.00
2019-01-16T17:27:19.002Z,13.40
2019-01-16T17:30:27.473Z,12.37
2019-01-16T17:33:18.356Z,12.23
2019-01-16T17:36:14.649Z,10.83
2019-01-16T17:39:02.482Z,12.47
2019-01-16T17:41:49.355Z,15.47
2019-01-16T17:44:42.735Z,12.33
2019-01-16T17:47:33.270Z,9.90
2019-01-16T17:50:12.971Z,11.50
2019-01-16T17:52:59.931Z,10.20
2019-01-16T17:55:50.347Z,11.50
2019-01-16T17:58:52.318Z,14.90
2019-01-16T18:01:42.521Z,16.50
2019-01-16T18:04:28.061Z,13.87
2019-01-16T18:07:14.256Z,13.07
2019-01-16T18:09:56.190Z,12.70
2019-01-16T18:12:41.655Z,12.07
2019-01-16T18:15:33.190Z,14.03
2019-01-16T18:18:18.647Z,17.10
2019-01-16T18:21:20.928Z,14.83
2019-01-16T18:24:06.702Z,14.30
2019-01-16T18:26:46.403Z,9.00
2019-01-16T18:29:32.181Z,12.17
2019-01-16T18:32:26.206Z,9.53
2019-01-16T18:35:09.563Z,8.50
2019-01-16T18:38:06.178Z,8.63
2019-01-16T18:41:02.479Z,9.67
2019-01-16T18:43:59.363Z,12.90
2019-01-16T18:46:40.891Z,15.97
2019-01-16T18:49:37.168Z,11.60
2019-01-16T18:52:27.613Z,10.60
2019-01-16T18:55:36.609Z,14.00
2019-01-16T18:58:26.387Z,10.80
2019-01-16T19:01:12.119Z,14.27
2019-01-16T19:04:26.347Z,12.77
2019-01-16T19:07:11.937Z,13.50
2019-01-16T19:10:00.394Z,14.70
2019-01-16T19:13:06.054Z,13.10
2019-01-16T19:15:51.211Z,12.30
2019-01-16T19:18:36.963Z,17.33
2019-01-16T19:21:33.350Z,11.13
2019-01-16T19:24:14.954Z,14.13
2019-01-16T19:26:53.629Z,10.20
2019-01-16T19:29:43.889Z,16.90
2019-01-16T19:32:31.493Z,14.67
2019-01-16T19:35:19.761Z,9.70
2019-01-16T19:38:05.167Z,10.70
2019-01-16T19:40:51.711Z,13.03
2019-01-16T19:43:46.148Z,11.93
2019-01-16T19:46:32.928Z,11.63
2019-01-16T19:49:38.220Z,15.37
2019-01-16T19:52:17.289Z,11.30
2019-01-16T19:55:03.385Z,10.27
2019-01-16T19:57:50.748Z,15.30
2019-01-16T20:00:40.872Z,15.60
2019-01-16T20:03:22.009Z,10.30
2019-01-16T20:06:07.210Z,10.07
2019-01-16T20:08:44.826Z,10.80
2019-01-16T20:11:31.889Z,10.17
2019-01-16T20:14:10.495Z,8.90
2019-01-16T20:16:51.782Z,10.00
2019-01-16T20:19:41.817Z,13.00
2019-01-16T20:22:40.824Z,10.97
2019-01-16T20:25:26.553Z,12.70
2019-01-16T20:28:19.178Z,11.57
2019-01-16T20:31:11.415Z,9.97
2019-01-16T20:33:56.647Z,9.57
2019-01-16T20:36:49.835Z,10.80
2019-01-16T20:39:32.872Z,9.80
2019-01-16T20:42:08.658Z,11.17
2019-01-16T20:44:54.901Z,12.17
2019-01-16T20:47:42.212Z,10.57
2019-01-16T20:50:27.808Z,8.63
2019-01-16T20:53:27.052Z,15.07
2019-01-16T20:56:32.682Z,12.80
2019-01-16T20:59:19.536Z,10.90
2019-01-16T21:02:01.539Z,10.70
2019-01-16T21:04:58.048Z,11.20
2019-01-16T21:07:48.797Z,13.90
2019-01-16T21:10:35.301Z,10.30
2019-01-16T21:13:35.092Z,10.20
2019-01-16T21:16:31.705Z,11.47
2019-01-16T21:19:20.851Z,9.97
2019-01-16T21:22:08.130Z,11.00
2019-01-16T21:24:58.453Z,18.30
2019-01-16T21:28:04.368Z,14.57
2019-01-16T21:31:01.394Z,10.83
2019-01-16T21:33:48.735Z,14.90
2019-01-16T21:36:30.008Z,14.83
2019-01-16T21:39:10.588Z,11.60
2019-01-16T21:41:48.079Z,11.33
2019-01-16T21:44:42.306Z,14.63
2019-01-16T21:47:25.162Z,10.30
2019-01-16T21:50:10.982Z,13.03
2019-01-16T21:52:54.861Z,11.60
2019-01-16T21:55:42.289Z,10.93
2019-01-16T21:58:46.121Z,11.23
2019-01-16T22:01:52.204Z,11.73
2019-01-16T22:04:50.995Z,11.33
2019-01-16T22:07:44.259Z,10.40
2019-01-16T22:10:39.329Z,11.00
2019-01-16T22:13:28.027Z,10.80
2019-01-16T22:16:14.366Z,10.70
2019-01-16T22:19:07.454Z,10.30
2019-01-16T22:21:51.105Z,11.87
2019-01-16T22:24:37.847Z,11.50
2019-01-16T22:27:18.677Z,10.63
2019-01-16T22:30:06.008Z,12.57
2019-01-16T22:32:52.510Z,10.87
2019-01-16T22:35:40.513Z,10.93
2019-01-16T22:38:29.179Z,10.77
2019-01-16T22:41:20.677Z,12.20
2019-01-16T22:44:13.517Z,10.77
2019-01-16T22:47:28.045Z,9.83
2019-01-16T22:50:34.493Z,10.43
2019-01-16T22:53:31.262Z,10.27
2019-01-16T22:56:38.370Z,10.23
2019-01-16T22:59:28.582Z,9.73
2019-01-16T23:02:11.780Z,9.50
2019-01-16T23:04:55.013Z,9.93
2019-01-16T23:07:37.489Z,9.20
2019-01-16T23:10:20.728Z,10.30
2019-01-16T23:13:18.506Z,10.23
2019-01-16T23:16:10.150Z,9.60
2019-01-16T23:19:07.652Z,10.10
2019-01-16T23:22:07.117Z,9.70
2019-01-16T23:25:11.839Z,10.63
2019-01-16T23:28:02.623Z,10.13
2019-01-16T23:30:58.982Z,8.40
2019-01-16T23:33:50.317Z,9.10
2019-01-16T23:36:39.857Z,9.50
2019-01-16T23:39:35.374Z,9.10
2019-01-16T23:42:27.687Z,9.50
2019-01-16T23:45:24.134Z,9.13
2019-01-16T23:48:10.775Z,9.27
2019-01-16T23:50:56.997Z,9.10
2019-01-16T23:53:34.911Z,8.20
2019-01-16T23:56:30.919Z,9.50
2019-01-16T23:59:17.550Z,8.03
